Αναφορές METAR Αεροδρομίων

 

LGTS - THESSALONIKI - GREECE
Ενημερώθηκε: 28/01/2022 08:20
Αίθριος
Αίθριος
 Ανεμος από ΑΝΑ
Ανεμος: ΑΝΑ 11 km/h
Θερμοκρασία: -3°C
Wind Chill: -7°C
Σημείο Δρόσου: -5°C
Υγρασία: 86%
Βαρόμετρο: 1023 hPa
Περίληψη: Αίθριος
Visibility: greater than 10 km
2022/01/28 06:20 LGTS 280620Z 11006KT CAVOK M03/M05 Q1023 NOSIG
LGLR - LARTISA - GREECE
Ενημερώθηκε: 28/01/2022 07:50
Αραιές Νεφώσεις
Αραιές Νεφώσεις
 Ανεμος από calm
Ανεμος: Απνοια
Θερμοκρασία: -6°C
Σημείο Δρόσου: -8°C
Υγρασία: 86%
Βαρόμετρο: 1023 hPa
Clouds: Αραιές Νεφώσεις
Visibility: 10 km
Cloud details: Αραιές Νεφώσεις 914 m
2022/01/28 05:50 LGLR 280550Z 00000KT 9999 FEW030 M06/M08 Q1023 RMK FEW080 BLU
 
LGKZ - KOZANI - GREECE
Ενημερώθηκε: 28/01/2022 07:50
Αίθριος
Αίθριος
 Ανεμος από ΒΒΔ
Ανεμος: ΒΒΔ 7 km/h
Θερμοκρασία: -5°C
Wind Chill: -8°C
Σημείο Δρόσου: -8°C
Υγρασία: 80%
Βαρόμετρο: 1021 hPa
Περίληψη: Αίθριος
Visibility: greater than 10 km
2022/01/28 05:50 LGKZ 280550Z 34004KT CAVOK M05/M08 Q1021
LGKV - KAVALA - GREECE
Ενημερώθηκε: 28/01/2022 08:20
Αραιές Νεφώσεις
Αραιές Νεφώσεις
 Ανεμος από calm
Ανεμος: Απνοια
Θερμοκρασία: -3°C
Σημείο Δρόσου: -4°C
Υγρασία: 93%
Βαρόμετρο: 1021 hPa
Clouds: Αραιές Νεφώσεις
Visibility: 10 km
Cloud details: Αραιές Νεφώσεις 1067 m
2022/01/28 06:20 LGKV 280620Z 00000KT 9999 FEW035 M03/M04 Q1021
 
LGIO - IOANNINA - GREECE
Ενημερώθηκε: 28/01/2022 08:20

 Ανεμος από varies
Ανεμος: varies 4 km/h
Θερμοκρασία: -6°C
Σημείο Δρόσου: -8°C
Υγρασία: 86%
Βαρόμετρο: 1024 hPa
2022/01/28 06:20 LGIO 280620Z AUTO VRB02KT //// // ////// M06/M08 Q1024 RE//
LGBL - BOLOS - GREECE
Ενημερώθηκε: 28/01/2022 08:20
Αραιές Νεφώσεις
Αραιές Νεφώσεις
 Ανεμος από Δ
Ανεμος: Δ 11 km/h
Θερμοκρασία: -2°C
Wind Chill: -6°C
Σημείο Δρόσου: -5°C
Υγρασία: 80%
Βαρόμετρο: 1023 hPa
Clouds: Αραιές Νεφώσεις
Visibility: 10 km
Cloud details: Αραιές Νεφώσεις 914 m
2022/01/28 06:20 LGBL 280620Z 26006KT 9999 FEW030 M02/M05 Q1023
 
LGMT - MITILINI - GREECE
Ενημερώθηκε: 28/01/2022 08:20
Μερικώς νεφελώδης
Μερικώς νεφελώδης
 Ανεμος από Ν
Ανεμος: Ν 9 km/h
Θερμοκρασία: 6°C
Wind Chill: 4°C
Σημείο Δρόσου: 0°C
Υγρασία: 66%
Βαρόμετρο: 1023 hPa
Clouds: Μερικώς νεφελώδης
Visibility: 10 km
Cloud details: Μερικώς νεφελώδης 914 m
2022/01/28 06:20 LGMT 280620Z 19005KT 9999 SCT030 06/M00 Q1023
LGAV - ATHENS - GREECE
Ενημερώθηκε: 28/01/2022 08:20
Αίθριος
Αίθριος
 Ανεμος από ΔΒΔ
Ανεμος: ΔΒΔ 2 km/h
Θερμοκρασία: 3°C
Σημείο Δρόσου: -4°C
Υγρασία: 60%
Βαρόμετρο: 1023 hPa
Περίληψη: Αίθριος
Visibility: greater than 10 km
2022/01/28 06:20 LGAV 280620Z 29001KT CAVOK 03/M04 Q1023 NOSIG
 
LGRP - RODOS - GREECE
Ενημερώθηκε: 28/01/2022 08:20
Μερικώς νεφελώδης
Μερικώς νεφελώδης
 Ανεμος από ΒΔ
Ανεμος: ΒΔ 11 km/h
Θερμοκρασία: 8°C
Wind Chill: 6°C
Σημείο Δρόσου: -2°C
Υγρασία: 50%
Βαρόμετρο: 1022 hPa
Clouds: Μερικώς νεφελώδης
Visibility: 10 km
Cloud details: Μερικώς νεφελώδης 549 m
2022/01/28 06:20 LGRP 280620Z 32006KT 9999 SCT018 08/M02 Q1022 NOSIG
LGIR - HRAKLIO/KRITI - GREECE
Ενημερώθηκε: 28/01/2022 08:20
Σχεδόν νεφελώδης
Σχεδόν νεφελώδης
 Ανεμος από ΝΝΑ
Ανεμος: ΝΝΑ 19 km/h
Θερμοκρασία: 6°C
Wind Chill: 3°C
Σημείο Δρόσου: 3°C
Υγρασία: 81%
Βαρόμετρο: 1022 hPa
Clouds: Σχεδόν νεφελώδης
Visibility: 10 km
Cloud details: Αραιές Νεφώσεις 549 m
Μερικώς νεφελώδης 762 m
Σχεδόν νεφελώδης 2438 m
2022/01/28 06:20 LGIR 280620Z 16010KT 9999 FEW018 SCT025 BKN080 06/03 Q1022 NOSIG
 
LGMK - MIKONOS - GREECE
Ενημερώθηκε: 28/01/2022 07:50
Μερικώς νεφελώδης
Μερικώς νεφελώδης
 Ανεμος από ΒΔ
Ανεμος: ΒΔ 7 km/h
Θερμοκρασία: 6°C
Wind Chill: 4°C
Σημείο Δρόσου: 0°C
Υγρασία: 66%
Βαρόμετρο: 1022 hPa
Clouds: Μερικώς νεφελώδης
Visibility: 10 km
Cloud details: Αραιές Νεφώσεις 457 m
Μερικώς νεφελώδης 1067 m
2022/01/28 05:50 LGMK 280550Z 32004KT 9999 FEW015 SCT035 06/00 Q1022
LGKR - KERKIRA - GREECE
Ενημερώθηκε: 28/01/2022 08:20
Μερικώς νεφελώδης
Μερικώς νεφελώδης
 Ανεμος από calm
Ανεμος: Απνοια
Θερμοκρασία: 1°C
Σημείο Δρόσου: -1°C
Υγρασία: 87%
Βαρόμετρο: 1023 hPa
Clouds: Μερικώς νεφελώδης
Visibility: 10 km
Cloud details: Μερικώς νεφελώδης 762 m
2022/01/28 06:20 LGKR 280620Z 00000KT 9999 SCT025 01/M01 Q1023 NOSIG